sensor_id;sensor_type;location;lat;lon;timestamp;P1;durP1;ratioP1;P2;durP2;ratioP2
4359;SDS011;2193;47.980;7.660;2023-04-12T00:00:03;6.63;;;2.20;;
4359;SDS011;2193;47.980;7.660;2023-04-12T00:02:31;3.90;;;1.60;;
4359;SDS011;2193;47.980;7.660;2023-04-12T00:04:59;2.20;;;1.73;;
4359;SDS011;2193;47.980;7.660;2023-04-12T00:07:27;5.70;;;1.90;;
4359;SDS011;2193;47.980;7.660;2023-04-12T00:09:54;4.20;;;1.70;;
4359;SDS011;2193;47.980;7.660;2023-04-12T00:12:19;4.87;;;1.63;;
4359;SDS011;2193;47.980;7.660;2023-04-12T00:14:45;2.83;;;1.70;;
4359;SDS011;2193;47.980;7.660;2023-04-12T00:17:10;3.30;;;2.03;;
4359;SDS011;2193;47.980;7.660;2023-04-12T00:19:36;4.27;;;2.00;;
4359;SDS011;2193;47.980;7.660;2023-04-12T00:22:05;2.80;;;1.77;;
4359;SDS011;2193;47.980;7.660;2023-04-12T00:24:30;5.30;;;1.90;;
4359;SDS011;2193;47.980;7.660;2023-04-12T00:26:55;3.47;;;1.83;;
4359;SDS011;2193;47.980;7.660;2023-04-12T00:29:21;2.60;;;1.97;;
4359;SDS011;2193;47.980;7.660;2023-04-12T00:31:46;2.40;;;1.57;;
4359;SDS011;2193;47.980;7.660;2023-04-12T00:34:11;3.03;;;1.60;;
4359;SDS011;2193;47.980;7.660;2023-04-12T00:36:36;3.70;;;1.70;;
4359;SDS011;2193;47.980;7.660;2023-04-12T00:39:01;3.73;;;1.60;;
4359;SDS011;2193;47.980;7.660;2023-04-12T00:41:27;3.37;;;1.70;;
4359;SDS011;2193;47.980;7.660;2023-04-12T00:43:52;6.07;;;1.77;;
4359;SDS011;2193;47.980;7.660;2023-04-12T00:46:17;2.27;;;1.73;;
4359;SDS011;2193;47.980;7.660;2023-04-12T00:48:43;2.37;;;1.57;;
4359;SDS011;2193;47.980;7.660;2023-04-12T00:51:11;3.17;;;1.80;;
4359;SDS011;2193;47.980;7.660;2023-04-12T00:53:37;5.43;;;1.90;;
4359;SDS011;2193;47.980;7.660;2023-04-12T00:56:02;2.33;;;1.40;;
4359;SDS011;2193;47.980;7.660;2023-04-12T00:58:28;1.80;;;1.30;;
4359;SDS011;2193;47.980;7.660;2023-04-12T01:00:53;5.00;;;1.60;;
4359;SDS011;2193;47.980;7.660;2023-04-12T01:03:18;2.60;;;1.33;;
4359;SDS011;2193;47.980;7.660;2023-04-12T01:08:40;3.07;;;1.50;;
4359;SDS011;2193;47.980;7.660;2023-04-12T01:11:08;4.70;;;1.70;;
4359;SDS011;2193;47.980;7.660;2023-04-12T01:19:06;3.00;;;1.40;;
4359;SDS011;2193;47.980;7.660;2023-04-12T01:22:22;2.90;;;1.40;;
4359;SDS011;2193;47.980;7.660;2023-04-12T01:24:25;3.30;;;1.40;;
4359;SDS011;2193;47.980;7.660;2023-04-12T01:26:55;3.47;;;1.60;;
4359;SDS011;2193;47.980;7.660;2023-04-12T01:29:24;2.53;;;1.30;;
4359;SDS011;2193;47.980;7.660;2023-04-12T01:31:53;1.90;;;1.23;;
4359;SDS011;2193;47.980;7.660;2023-04-12T01:34:19;1.83;;;1.30;;
4359;SDS011;2193;47.980;7.660;2023-04-12T01:36:46;2.93;;;1.40;;
4359;SDS011;2193;47.980;7.660;2023-04-12T01:39:11;4.43;;;1.40;;
4359;SDS011;2193;47.980;7.660;2023-04-12T01:41:39;2.33;;;1.40;;
4359;SDS011;2193;47.980;7.660;2023-04-12T01:44:06;3.80;;;1.50;;
4359;SDS011;2193;47.980;7.660;2023-04-12T01:46:31;2.17;;;1.67;;
4359;SDS011;2193;47.980;7.660;2023-04-12T01:48:56;4.47;;;1.73;;
4359;SDS011;2193;47.980;7.660;2023-04-12T01:53:48;1.80;;;1.70;;
4359;SDS011;2193;47.980;7.660;2023-04-12T01:56:15;5.00;;;1.80;;
4359;SDS011;2193;47.980;7.660;2023-04-12T01:58:41;1.67;;;1.50;;
4359;SDS011;2193;47.980;7.660;2023-04-12T02:01:07;4.47;;;2.00;;
4359;SDS011;2193;47.980;7.660;2023-04-12T02:03:33;7.23;;;1.83;;
4359;SDS011;2193;47.980;7.660;2023-04-12T02:05:58;2.80;;;2.10;;
4359;SDS011;2193;47.980;7.660;2023-04-12T02:08:24;6.30;;;1.70;;
4359;SDS011;2193;47.980;7.660;2023-04-12T02:10:50;3.60;;;1.50;;
4359;SDS011;2193;47.980;7.660;2023-04-12T02:13:15;1.70;;;1.60;;
4359;SDS011;2193;47.980;7.660;2023-04-12T02:15:42;3.70;;;2.27;;
4359;SDS011;2193;47.980;7.660;2023-04-12T02:18:08;2.07;;;1.93;;
4359;SDS011;2193;47.980;7.660;2023-04-12T02:20:33;3.13;;;2.40;;
4359;SDS011;2193;47.980;7.660;2023-04-12T02:22:59;7.17;;;2.90;;
4359;SDS011;2193;47.980;7.660;2023-04-12T02:25:24;4.37;;;2.13;;
4359;SDS011;2193;47.980;7.660;2023-04-12T02:27:51;5.93;;;2.37;;
4359;SDS011;2193;47.980;7.660;2023-04-12T02:30:16;3.40;;;2.40;;
4359;SDS011;2193;47.980;7.660;2023-04-12T02:32:41;5.07;;;2.47;;
4359;SDS011;2193;47.980;7.660;2023-04-12T02:35:12;4.57;;;2.23;;
4359;SDS011;2193;47.980;7.660;2023-04-12T02:37:38;2.57;;;2.00;;
4359;SDS011;2193;47.980;7.660;2023-04-12T02:40:03;7.23;;;2.20;;
4359;SDS011;2193;47.980;7.660;2023-04-12T02:42:32;3.17;;;2.33;;
4359;SDS011;2193;47.980;7.660;2023-04-12T02:44:57;3.37;;;2.80;;
4359;SDS011;2193;47.980;7.660;2023-04-12T02:47:22;4.20;;;2.73;;
4359;SDS011;2193;47.980;7.660;2023-04-12T02:49:52;4.70;;;2.30;;
4359;SDS011;2193;47.980;7.660;2023-04-12T02:52:17;2.60;;;2.17;;
4359;SDS011;2193;47.980;7.660;2023-04-12T02:54:42;6.80;;;2.80;;
4359;SDS011;2193;47.980;7.660;2023-04-12T02:57:07;6.50;;;2.67;;
4359;SDS011;2193;47.980;7.660;2023-04-12T02:59:33;3.20;;;2.10;;
4359;SDS011;2193;47.980;7.660;2023-04-12T03:01:58;2.60;;;2.10;;
4359;SDS011;2193;47.980;7.660;2023-04-12T03:04:23;6.60;;;2.00;;
4359;SDS011;2193;47.980;7.660;2023-04-12T03:06:53;3.40;;;2.30;;
4359;SDS011;2193;47.980;7.660;2023-04-12T03:09:18;2.93;;;2.27;;
4359;SDS011;2193;47.980;7.660;2023-04-12T03:11:45;2.60;;;2.40;;
4359;SDS011;2193;47.980;7.660;2023-04-12T03:14:10;5.20;;;2.53;;
4359;SDS011;2193;47.980;7.660;2023-04-12T03:16:35;6.20;;;2.77;;
4359;SDS011;2193;47.980;7.660;2023-04-12T03:19:00;3.33;;;2.70;;
4359;SDS011;2193;47.980;7.660;2023-04-12T03:21:26;3.80;;;2.10;;
4359;SDS011;2193;47.980;7.660;2023-04-12T03:23:52;4.35;;;2.65;;
4359;SDS011;2193;47.980;7.660;2023-04-12T03:26:17;2.80;;;2.00;;
4359;SDS011;2193;47.980;7.660;2023-04-12T03:28:44;5.35;;;2.67;;
4359;SDS011;2193;47.980;7.660;2023-04-12T03:31:09;4.37;;;2.10;;
4359;SDS011;2193;47.980;7.660;2023-04-12T03:33:36;4.13;;;2.83;;
4359;SDS011;2193;47.980;7.660;2023-04-12T03:36:02;3.80;;;2.47;;
4359;SDS011;2193;47.980;7.660;2023-04-12T03:38:27;4.23;;;2.80;;
4359;SDS011;2193;47.980;7.660;2023-04-12T03:40:52;6.73;;;4.23;;
4359;SDS011;2193;47.980;7.660;2023-04-12T03:43:17;3.93;;;2.13;;
4359;SDS011;2193;47.980;7.660;2023-04-12T03:45:42;3.70;;;2.33;;
4359;SDS011;2193;47.980;7.660;2023-04-12T03:48:08;4.00;;;2.30;;
4359;SDS011;2193;47.980;7.660;2023-04-12T03:50:35;2.75;;;2.20;;
4359;SDS011;2193;47.980;7.660;2023-04-12T03:53:08;3.67;;;2.85;;
4359;SDS011;2193;47.980;7.660;2023-04-12T03:55:33;2.60;;;2.40;;
4359;SDS011;2193;47.980;7.660;2023-04-12T03:57:58;3.90;;;2.80;;
4359;SDS011;2193;47.980;7.660;2023-04-12T04:00:23;5.07;;;2.70;;
4359;SDS011;2193;47.980;7.660;2023-04-12T04:02:48;5.03;;;2.93;;
4359;SDS011;2193;47.980;7.660;2023-04-12T04:05:14;6.13;;;3.07;;
4359;SDS011;2193;47.980;7.660;2023-04-12T04:07:39;8.00;;;3.57;;
4359;SDS011;2193;47.980;7.660;2023-04-12T04:10:04;6.63;;;3.00;;
4359;SDS011;2193;47.980;7.660;2023-04-12T04:12:30;5.53;;;2.57;;
4359;SDS011;2193;47.980;7.660;2023-04-12T04:14:55;3.20;;;2.33;;
4359;SDS011;2193;47.980;7.660;2023-04-12T04:17:20;5.27;;;2.67;;
4359;SDS011;2193;47.980;7.660;2023-04-12T04:19:45;2.60;;;2.17;;
4359;SDS011;2193;47.980;7.660;2023-04-12T04:22:10;4.57;;;2.47;;
4359;SDS011;2193;47.980;7.660;2023-04-12T04:24:36;5.93;;;2.20;;
4359;SDS011;2193;47.980;7.660;2023-04-12T04:27:03;2.20;;;1.98;;
4359;SDS011;2193;47.980;7.660;2023-04-12T04:29:28;4.40;;;2.43;;
4359;SDS011;2193;47.980;7.660;2023-04-12T04:31:54;4.07;;;2.27;;
4359;SDS011;2193;47.980;7.660;2023-04-12T04:34:19;5.63;;;2.20;;
4359;SDS011;2193;47.980;7.660;2023-04-12T04:36:46;3.50;;;2.03;;
4359;SDS011;2193;47.980;7.660;2023-04-12T04:39:11;3.13;;;2.03;;
4359;SDS011;2193;47.980;7.660;2023-04-12T04:41:36;2.23;;;2.03;;
4359;SDS011;2193;47.980;7.660;2023-04-12T04:44:05;9.93;;;2.30;;
4359;SDS011;2193;47.980;7.660;2023-04-12T04:46:33;7.33;;;3.00;;
4359;SDS011;2193;47.980;7.660;2023-04-12T04:49:00;5.10;;;2.13;;
4359;SDS011;2193;47.980;7.660;2023-04-12T04:51:26;3.23;;;2.30;;
4359;SDS011;2193;47.980;7.660;2023-04-12T04:53:51;3.40;;;2.30;;
4359;SDS011;2193;47.980;7.660;2023-04-12T04:56:16;2.77;;;2.33;;
4359;SDS011;2193;47.980;7.660;2023-04-12T04:58:41;2.00;;;1.80;;
4359;SDS011;2193;47.980;7.660;2023-04-12T05:01:07;4.97;;;1.83;;
4359;SDS011;2193;47.980;7.660;2023-04-12T05:03:32;6.50;;;2.10;;
4359;SDS011;2193;47.980;7.660;2023-04-12T05:05:58;2.87;;;1.70;;
4359;SDS011;2193;47.980;7.660;2023-04-12T05:08:23;3.40;;;2.07;;
4359;SDS011;2193;47.980;7.660;2023-04-12T05:10:49;2.70;;;2.17;;
4359;SDS011;2193;47.980;7.660;2023-04-12T05:13:16;4.30;;;2.30;;
4359;SDS011;2193;47.980;7.660;2023-04-12T05:15:41;1.80;;;1.50;;
4359;SDS011;2193;47.980;7.660;2023-04-12T05:18:06;4.50;;;2.20;;
4359;SDS011;2193;47.980;7.660;2023-04-12T05:20:31;2.80;;;1.77;;
4359;SDS011;2193;47.980;7.660;2023-04-12T05:22:56;7.33;;;2.17;;
4359;SDS011;2193;47.980;7.660;2023-04-12T05:25:21;3.10;;;1.53;;
4359;SDS011;2193;47.980;7.660;2023-04-12T05:27:47;8.47;;;2.20;;
4359;SDS011;2193;47.980;7.660;2023-04-12T05:30:12;5.07;;;2.10;;
4359;SDS011;2193;47.980;7.660;2023-04-12T05:32:37;2.10;;;1.70;;
4359;SDS011;2193;47.980;7.660;2023-04-12T05:35:02;3.97;;;1.90;;
4359;SDS011;2193;47.980;7.660;2023-04-12T05:37:28;4.63;;;2.03;;
4359;SDS011;2193;47.980;7.660;2023-04-12T05:39:53;4.10;;;1.70;;
4359;SDS011;2193;47.980;7.660;2023-04-12T05:42:18;1.90;;;1.80;;
4359;SDS011;2193;47.980;7.660;2023-04-12T05:44:43;6.60;;;1.83;;
4359;SDS011;2193;47.980;7.660;2023-04-12T05:47:09;5.43;;;2.23;;
4359;SDS011;2193;47.980;7.660;2023-04-12T05:49:34;4.53;;;1.83;;
4359;SDS011;2193;47.980;7.660;2023-04-12T05:52:00;2.10;;;1.73;;
4359;SDS011;2193;47.980;7.660;2023-04-12T05:54:25;3.53;;;1.97;;
4359;SDS011;2193;47.980;7.660;2023-04-12T05:56:51;4.83;;;2.20;;
4359;SDS011;2193;47.980;7.660;2023-04-12T05:59:18;3.20;;;2.00;;
4359;SDS011;2193;47.980;7.660;2023-04-12T06:01:43;6.63;;;2.07;;
4359;SDS011;2193;47.980;7.660;2023-04-12T06:04:08;3.57;;;1.97;;
4359;SDS011;2193;47.980;7.660;2023-04-12T06:06:34;4.30;;;2.37;;
4359;SDS011;2193;47.980;7.660;2023-04-12T06:08:59;3.20;;;1.87;;
4359;SDS011;2193;47.980;7.660;2023-04-12T06:11:25;7.53;;;2.37;;
4359;SDS011;2193;47.980;7.660;2023-04-12T06:13:50;3.00;;;1.77;;
4359;SDS011;2193;47.980;7.660;2023-04-12T06:16:15;6.43;;;1.90;;
4359;SDS011;2193;47.980;7.660;2023-04-12T06:18:41;4.47;;;2.10;;
4359;SDS011;2193;47.980;7.660;2023-04-12T06:21:06;3.43;;;2.00;;
4359;SDS011;2193;47.980;7.660;2023-04-12T06:23:31;3.47;;;2.07;;
4359;SDS011;2193;47.980;7.660;2023-04-12T06:25:56;4.23;;;2.20;;
4359;SDS011;2193;47.980;7.660;2023-04-12T06:28:21;3.63;;;2.00;;
4359;SDS011;2193;47.980;7.660;2023-04-12T06:30:47;4.73;;;1.80;;
4359;SDS011;2193;47.980;7.660;2023-04-12T06:33:12;3.03;;;1.93;;
4359;SDS011;2193;47.980;7.660;2023-04-12T06:35:37;7.63;;;2.10;;
4359;SDS011;2193;47.980;7.660;2023-04-12T06:38:02;4.50;;;2.17;;
4359;SDS011;2193;47.980;7.660;2023-04-12T06:40:28;5.43;;;1.90;;
4359;SDS011;2193;47.980;7.660;2023-04-12T06:42:53;7.73;;;2.50;;
4359;SDS011;2193;47.980;7.660;2023-04-12T06:45:18;6.80;;;2.63;;
4359;SDS011;2193;47.980;7.660;2023-04-12T06:47:43;4.30;;;2.30;;
4359;SDS011;2193;47.980;7.660;2023-04-12T06:50:09;8.30;;;2.60;;
4359;SDS011;2193;47.980;7.660;2023-04-12T06:52:34;6.33;;;2.37;;
4359;SDS011;2193;47.980;7.660;2023-04-12T06:54:59;2.53;;;1.90;;
4359;SDS011;2193;47.980;7.660;2023-04-12T06:57:25;3.87;;;1.93;;
4359;SDS011;2193;47.980;7.660;2023-04-12T06:59:50;5.77;;;1.90;;
4359;SDS011;2193;47.980;7.660;2023-04-12T07:02:15;3.07;;;1.70;;
4359;SDS011;2193;47.980;7.660;2023-04-12T07:04:40;7.23;;;1.73;;
4359;SDS011;2193;47.980;7.660;2023-04-12T07:07:05;4.60;;;1.80;;
4359;SDS011;2193;47.980;7.660;2023-04-12T07:09:31;3.63;;;1.67;;
4359;SDS011;2193;47.980;7.660;2023-04-12T07:11:56;3.47;;;1.57;;
4359;SDS011;2193;47.980;7.660;2023-04-12T07:14:21;3.53;;;1.87;;
4359;SDS011;2193;47.980;7.660;2023-04-12T07:16:47;2.97;;;1.77;;
4359;SDS011;2193;47.980;7.660;2023-04-12T07:19:12;3.30;;;1.67;;
4359;SDS011;2193;47.980;7.660;2023-04-12T07:21:37;3.07;;;1.67;;
4359;SDS011;2193;47.980;7.660;2023-04-12T07:24:02;3.50;;;2.10;;
4359;SDS011;2193;47.980;7.660;2023-04-12T07:26:27;5.23;;;1.97;;
4359;SDS011;2193;47.980;7.660;2023-04-12T07:28:54;4.03;;;1.70;;
4359;SDS011;2193;47.980;7.660;2023-04-12T07:31:19;5.00;;;1.70;;
4359;SDS011;2193;47.980;7.660;2023-04-12T07:33:44;4.67;;;2.20;;
4359;SDS011;2193;47.980;7.660;2023-04-12T07:36:10;5.53;;;2.10;;
4359;SDS011;2193;47.980;7.660;2023-04-12T07:38:35;5.23;;;2.20;;
4359;SDS011;2193;47.980;7.660;2023-04-12T07:41:00;3.50;;;2.73;;
4359;SDS011;2193;47.980;7.660;2023-04-12T07:43:26;4.70;;;2.23;;
4359;SDS011;2193;47.980;7.660;2023-04-12T07:45:52;4.07;;;2.00;;
4359;SDS011;2193;47.980;7.660;2023-04-12T07:48:18;3.77;;;2.10;;
4359;SDS011;2193;47.980;7.660;2023-04-12T07:50:43;7.77;;;2.43;;
4359;SDS011;2193;47.980;7.660;2023-04-12T07:53:18;5.90;;;2.43;;
4359;SDS011;2193;47.980;7.660;2023-04-12T07:55:44;7.57;;;2.40;;
4359;SDS011;2193;47.980;7.660;2023-04-12T07:58:09;5.33;;;2.13;;
4359;SDS011;2193;47.980;7.660;2023-04-12T08:00:34;6.50;;;2.00;;
4359;SDS011;2193;47.980;7.660;2023-04-12T08:03:00;3.23;;;1.50;;
4359;SDS011;2193;47.980;7.660;2023-04-12T08:05:25;4.73;;;2.10;;
4359;SDS011;2193;47.980;7.660;2023-04-12T08:07:50;3.17;;;1.90;;
4359;SDS011;2193;47.980;7.660;2023-04-12T08:10:15;6.27;;;2.20;;
4359;SDS011;2193;47.980;7.660;2023-04-12T08:12:40;5.63;;;2.13;;
4359;SDS011;2193;47.980;7.660;2023-04-12T08:15:06;5.63;;;1.87;;
4359;SDS011;2193;47.980;7.660;2023-04-12T08:17:31;6.97;;;2.30;;
4359;SDS011;2193;47.980;7.660;2023-04-12T08:19:56;2.80;;;2.10;;
4359;SDS011;2193;47.980;7.660;2023-04-12T08:22:21;4.03;;;2.00;;
4359;SDS011;2193;47.980;7.660;2023-04-12T08:24:47;12.07;;;2.10;;
4359;SDS011;2193;47.980;7.660;2023-04-12T08:27:12;5.83;;;1.90;;
4359;SDS011;2193;47.980;7.660;2023-04-12T08:29:38;5.27;;;1.87;;
4359;SDS011;2193;47.980;7.660;2023-04-12T08:32:03;4.13;;;2.47;;
4359;SDS011;2193;47.980;7.660;2023-04-12T08:34:29;7.73;;;2.60;;
4359;SDS011;2193;47.980;7.660;2023-04-12T08:36:54;7.50;;;2.37;;
4359;SDS011;2193;47.980;7.660;2023-04-12T08:39:23;6.03;;;2.50;;
4359;SDS011;2193;47.980;7.660;2023-04-12T08:41:48;5.60;;;2.23;;
4359;SDS011;2193;47.980;7.660;2023-04-12T08:44:14;3.63;;;2.50;;
4359;SDS011;2193;47.980;7.660;2023-04-12T08:46:40;8.33;;;2.30;;
4359;SDS011;2193;47.980;7.660;2023-04-12T08:49:06;2.50;;;2.10;;
4359;SDS011;2193;47.980;7.660;2023-04-12T08:51:31;6.23;;;2.63;;
4359;SDS011;2193;47.980;7.660;2023-04-12T08:53:57;8.73;;;2.60;;
4359;SDS011;2193;47.980;7.660;2023-04-12T08:56:23;8.97;;;2.30;;
4359;SDS011;2193;47.980;7.660;2023-04-12T08:58:48;5.53;;;2.30;;
4359;SDS011;2193;47.980;7.660;2023-04-12T09:01:15;8.67;;;2.13;;
4359;SDS011;2193;47.980;7.660;2023-04-12T09:03:41;3.30;;;2.30;;
4359;SDS011;2193;47.980;7.660;2023-04-12T09:06:06;4.00;;;2.63;;
4359;SDS011;2193;47.980;7.660;2023-04-12T09:08:31;7.00;;;2.50;;
4359;SDS011;2193;47.980;7.660;2023-04-12T09:10:57;7.00;;;2.33;;
4359;SDS011;2193;47.980;7.660;2023-04-12T09:13:32;6.97;;;2.47;;
4359;SDS011;2193;47.980;7.660;2023-04-12T09:15:58;5.67;;;2.70;;
4359;SDS011;2193;47.980;7.660;2023-04-12T09:18:23;6.90;;;3.00;;
4359;SDS011;2193;47.980;7.660;2023-04-12T09:20:49;6.33;;;2.70;;
4359;SDS011;2193;47.980;7.660;2023-04-12T09:23:20;2.83;;;2.20;;
4359;SDS011;2193;47.980;7.660;2023-04-12T09:25:46;5.43;;;2.67;;
4359;SDS011;2193;47.980;7.660;2023-04-12T09:28:23;7.47;;;2.70;;
4359;SDS011;2193;47.980;7.660;2023-04-12T09:30:50;5.80;;;2.40;;
4359;SDS011;2193;47.980;7.660;2023-04-12T09:33:16;6.07;;;2.70;;
4359;SDS011;2193;47.980;7.660;2023-04-12T09:35:41;4.77;;;2.90;;
4359;SDS011;2193;47.980;7.660;2023-04-12T09:38:07;10.50;;;3.63;;
4359;SDS011;2193;47.980;7.660;2023-04-12T09:40:33;3.83;;;2.70;;
4359;SDS011;2193;47.980;7.660;2023-04-12T09:43:00;8.50;;;2.70;;
4359;SDS011;2193;47.980;7.660;2023-04-12T09:45:25;11.37;;;2.97;;
4359;SDS011;2193;47.980;7.660;2023-04-12T09:47:52;8.00;;;3.00;;
4359;SDS011;2193;47.980;7.660;2023-04-12T09:52:46;10.73;;;3.40;;
4359;SDS011;2193;47.980;7.660;2023-04-12T09:55:12;8.13;;;2.93;;
4359;SDS011;2193;47.980;7.660;2023-04-12T09:57:39;5.80;;;2.93;;
4359;SDS011;2193;47.980;7.660;2023-04-12T10:00:05;4.77;;;3.03;;
4359;SDS011;2193;47.980;7.660;2023-04-12T10:02:35;8.13;;;3.27;;
4359;SDS011;2193;47.980;7.660;2023-04-12T10:05:01;8.33;;;2.90;;
4359;SDS011;2193;47.980;7.660;2023-04-12T10:07:26;5.20;;;2.80;;
4359;SDS011;2193;47.980;7.660;2023-04-12T10:09:52;7.30;;;3.10;;
4359;SDS011;2193;47.980;7.660;2023-04-12T10:12:17;7.03;;;3.00;;
4359;SDS011;2193;47.980;7.660;2023-04-12T10:14:43;5.67;;;2.90;;
4359;SDS011;2193;47.980;7.660;2023-04-12T10:17:09;12.20;;;3.40;;
4359;SDS011;2193;47.980;7.660;2023-04-12T10:19:36;5.63;;;2.33;;
4359;SDS011;2193;47.980;7.660;2023-04-12T10:22:03;6.23;;;2.83;;
4359;SDS011;2193;47.980;7.660;2023-04-12T10:24:28;5.37;;;2.70;;
4359;SDS011;2193;47.980;7.660;2023-04-12T10:26:54;4.00;;;2.80;;
4359;SDS011;2193;47.980;7.660;2023-04-12T10:31:46;6.03;;;2.40;;
4359;SDS011;2193;47.980;7.660;2023-04-12T10:34:11;4.30;;;2.60;;
4359;SDS011;2193;47.980;7.660;2023-04-12T10:36:49;5.33;;;2.80;;
4359;SDS011;2193;47.980;7.660;2023-04-12T10:39:15;5.90;;;2.50;;
4359;SDS011;2193;47.980;7.660;2023-04-12T10:41:54;4.27;;;2.43;;
4359;SDS011;2193;47.980;7.660;2023-04-12T10:44:25;3.83;;;2.43;;
4359;SDS011;2193;47.980;7.660;2023-04-12T10:46:51;6.60;;;2.70;;
4359;SDS011;2193;47.980;7.660;2023-04-12T10:49:16;7.23;;;3.00;;
4359;SDS011;2193;47.980;7.660;2023-04-12T10:56:51;8.37;;;4.30;;
4359;SDS011;2193;47.980;7.660;2023-04-12T10:59:16;12.40;;;8.20;;
4359;SDS011;2193;47.980;7.660;2023-04-12T11:02:07;42.50;;;21.80;;
4359;SDS011;2193;47.980;7.660;2023-04-12T11:04:27;38.70;;;18.93;;
4359;SDS011;2193;47.980;7.660;2023-04-12T11:11:46;5.70;;;3.03;;
4359;SDS011;2193;47.980;7.660;2023-04-12T11:14:12;4.17;;;2.80;;
4359;SDS011;2193;47.980;7.660;2023-04-12T11:19:58;4.90;;;2.17;;
4359;SDS011;2193;47.980;7.660;2023-04-12T11:22:22;5.90;;;2.77;;
4359;SDS011;2193;47.980;7.660;2023-04-12T11:24:49;10.27;;;2.67;;
4359;SDS011;2193;47.980;7.660;2023-04-12T11:27:15;6.10;;;2.40;;
4359;SDS011;2193;47.980;7.660;2023-04-12T11:29:41;4.27;;;2.77;;
4359;SDS011;2193;47.980;7.660;2023-04-12T11:32:09;5.70;;;2.30;;
4359;SDS011;2193;47.980;7.660;2023-04-12T11:34:35;7.87;;;2.17;;
4359;SDS011;2193;47.980;7.660;2023-04-12T11:37:01;6.00;;;2.50;;
4359;SDS011;2193;47.980;7.660;2023-04-12T11:39:29;3.10;;;2.30;;
4359;SDS011;2193;47.980;7.660;2023-04-12T11:41:55;7.03;;;2.10;;
4359;SDS011;2193;47.980;7.660;2023-04-12T11:44:21;3.60;;;2.10;;
4359;SDS011;2193;47.980;7.660;2023-04-12T11:46:47;4.30;;;1.97;;
4359;SDS011;2193;47.980;7.660;2023-04-12T11:49:19;4.83;;;2.07;;
4359;SDS011;2193;47.980;7.660;2023-04-12T11:51:44;5.30;;;2.57;;
4359;SDS011;2193;47.980;7.660;2023-04-12T11:54:10;5.37;;;2.10;;
4359;SDS011;2193;47.980;7.660;2023-04-12T11:56:35;3.53;;;1.93;;
4359;SDS011;2193;47.980;7.660;2023-04-12T11:59:01;2.80;;;1.60;;
4359;SDS011;2193;47.980;7.660;2023-04-12T12:01:26;2.90;;;1.30;;
4359;SDS011;2193;47.980;7.660;2023-04-12T12:03:53;3.57;;;1.73;;
4359;SDS011;2193;47.980;7.660;2023-04-12T12:06:18;6.90;;;1.83;;
4359;SDS011;2193;47.980;7.660;2023-04-12T12:08:44;1.97;;;1.20;;
4359;SDS011;2193;47.980;7.660;2023-04-12T12:11:09;2.20;;;1.70;;
4359;SDS011;2193;47.980;7.660;2023-04-12T12:13:47;2.73;;;1.77;;
4359;SDS011;2193;47.980;7.660;2023-04-12T12:16:13;8.10;;;1.70;;
4359;SDS011;2193;47.980;7.660;2023-04-12T12:18:39;3.80;;;1.57;;
4359;SDS011;2193;47.980;7.660;2023-04-12T12:21:06;2.40;;;1.50;;
4359;SDS011;2193;47.980;7.660;2023-04-12T12:23:32;4.67;;;1.40;;
4359;SDS011;2193;47.980;7.660;2023-04-12T12:25:58;2.73;;;2.20;;
4359;SDS011;2193;47.980;7.660;2023-04-12T12:28:23;2.97;;;1.83;;
4359;SDS011;2193;47.980;7.660;2023-04-12T12:30:52;1.87;;;1.20;;
4359;SDS011;2193;47.980;7.660;2023-04-12T12:33:19;3.37;;;1.70;;
4359;SDS011;2193;47.980;7.660;2023-04-12T12:35:45;3.30;;;1.50;;
4359;SDS011;2193;47.980;7.660;2023-04-12T12:38:10;2.63;;;1.30;;
4359;SDS011;2193;47.980;7.660;2023-04-12T12:40:36;3.13;;;1.50;;
4359;SDS011;2193;47.980;7.660;2023-04-12T12:43:02;2.70;;;1.40;;
4359;SDS011;2193;47.980;7.660;2023-04-12T12:45:28;4.80;;;1.90;;
4359;SDS011;2193;47.980;7.660;2023-04-12T12:47:59;9.50;;;1.27;;
4359;SDS011;2193;47.980;7.660;2023-04-12T12:50:25;3.10;;;1.80;;
4359;SDS011;2193;47.980;7.660;2023-04-12T12:52:50;5.33;;;1.20;;
4359;SDS011;2193;47.980;7.660;2023-04-12T12:55:16;6.27;;;1.50;;
4359;SDS011;2193;47.980;7.660;2023-04-12T12:57:42;2.10;;;1.40;;
4359;SDS011;2193;47.980;7.660;2023-04-12T13:00:08;6.23;;;1.50;;
4359;SDS011;2193;47.980;7.660;2023-04-12T13:02:34;2.33;;;1.00;;
4359;SDS011;2193;47.980;7.660;2023-04-12T13:04:59;1.77;;;1.23;;
4359;SDS011;2193;47.980;7.660;2023-04-12T13:07:26;4.17;;;1.70;;
4359;SDS011;2193;47.980;7.660;2023-04-12T13:09:51;4.63;;;1.40;;
4359;SDS011;2193;47.980;7.660;2023-04-12T13:12:17;9.23;;;1.50;;
4359;SDS011;2193;47.980;7.660;2023-04-12T13:14:42;1.27;;;1.00;;
4359;SDS011;2193;47.980;7.660;2023-04-12T13:17:07;1.90;;;1.27;;
4359;SDS011;2193;47.980;7.660;2023-04-12T13:19:32;2.90;;;1.10;;
4359;SDS011;2193;47.980;7.660;2023-04-12T13:21:58;1.97;;;1.03;;
4359;SDS011;2193;47.980;7.660;2023-04-12T13:24:23;3.03;;;1.10;;
4359;SDS011;2193;47.980;7.660;2023-04-12T13:26:48;2.90;;;1.10;;
4359;SDS011;2193;47.980;7.660;2023-04-12T13:29:13;3.13;;;0.97;;
4359;SDS011;2193;47.980;7.660;2023-04-12T13:31:38;1.20;;;1.10;;
4359;SDS011;2193;47.980;7.660;2023-04-12T13:34:04;2.03;;;1.07;;
4359;SDS011;2193;47.980;7.660;2023-04-12T13:36:29;12.17;;;1.30;;
4359;SDS011;2193;47.980;7.660;2023-04-12T13:38:54;0.90;;;0.90;;
4359;SDS011;2193;47.980;7.660;2023-04-12T13:41:20;2.93;;;1.23;;
4359;SDS011;2193;47.980;7.660;2023-04-12T13:43:45;3.70;;;1.33;;
4359;SDS011;2193;47.980;7.660;2023-04-12T13:46:10;2.90;;;1.30;;
4359;SDS011;2193;47.980;7.660;2023-04-12T13:48:37;2.60;;;1.40;;
4359;SDS011;2193;47.980;7.660;2023-04-12T13:51:02;9.67;;;5.03;;
4359;SDS011;2193;47.980;7.660;2023-04-12T13:53:28;4.23;;;2.17;;
4359;SDS011;2193;47.980;7.660;2023-04-12T13:55:54;1.67;;;1.23;;
4359;SDS011;2193;47.980;7.660;2023-04-12T13:58:20;2.10;;;1.20;;
4359;SDS011;2193;47.980;7.660;2023-04-12T14:00:45;1.93;;;1.23;;
4359;SDS011;2193;47.980;7.660;2023-04-12T14:03:10;1.47;;;1.37;;
4359;SDS011;2193;47.980;7.660;2023-04-12T14:05:35;1.63;;;0.90;;
4359;SDS011;2193;47.980;7.660;2023-04-12T14:08:00;2.50;;;1.10;;
4359;SDS011;2193;47.980;7.660;2023-04-12T14:10:26;6.97;;;1.63;;
4359;SDS011;2193;47.980;7.660;2023-04-12T14:12:51;5.87;;;2.07;;
4359;SDS011;2193;47.980;7.660;2023-04-12T14:15:16;1.93;;;1.67;;
4359;SDS011;2193;47.980;7.660;2023-04-12T14:17:41;5.23;;;3.70;;
4359;SDS011;2193;47.980;7.660;2023-04-12T14:20:07;3.67;;;2.53;;
4359;SDS011;2193;47.980;7.660;2023-04-12T14:22:34;12.80;;;3.37;;
4359;SDS011;2193;47.980;7.660;2023-04-12T14:24:59;3.50;;;2.87;;
4359;SDS011;2193;47.980;7.660;2023-04-12T14:27:25;4.97;;;1.60;;
4359;SDS011;2193;47.980;7.660;2023-04-12T14:29:50;2.50;;;1.87;;
4359;SDS011;2193;47.980;7.660;2023-04-12T14:32:15;1.90;;;1.10;;
4359;SDS011;2193;47.980;7.660;2023-04-12T14:34:41;2.87;;;1.90;;
4359;SDS011;2193;47.980;7.660;2023-04-12T14:37:07;2.03;;;1.20;;
4359;SDS011;2193;47.980;7.660;2023-04-12T14:39:32;2.10;;;1.10;;
4359;SDS011;2193;47.980;7.660;2023-04-12T14:41:58;1.80;;;1.00;;
4359;SDS011;2193;47.980;7.660;2023-04-12T14:44:23;0.93;;;0.50;;
4359;SDS011;2193;47.980;7.660;2023-04-12T14:46:48;2.53;;;0.53;;
4359;SDS011;2193;47.980;7.660;2023-04-12T14:49:13;0.60;;;0.47;;
4359;SDS011;2193;47.980;7.660;2023-04-12T14:51:39;0.97;;;0.50;;
4359;SDS011;2193;47.980;7.660;2023-04-12T14:54:04;1.20;;;0.50;;
4359;SDS011;2193;47.980;7.660;2023-04-12T14:56:29;0.90;;;0.50;;
4359;SDS011;2193;47.980;7.660;2023-04-12T14:58:55;0.80;;;0.47;;
4359;SDS011;2193;47.980;7.660;2023-04-12T15:01:21;0.73;;;0.40;;
4359;SDS011;2193;47.980;7.660;2023-04-12T15:03:47;1.90;;;0.70;;
4359;SDS011;2193;47.980;7.660;2023-04-12T15:06:12;2.00;;;0.50;;
4359;SDS011;2193;47.980;7.660;2023-04-12T15:08:38;1.47;;;0.50;;
4359;SDS011;2193;47.980;7.660;2023-04-12T15:11:07;0.60;;;0.40;;
4359;SDS011;2193;47.980;7.660;2023-04-12T15:13:38;0.60;;;0.40;;
4359;SDS011;2193;47.980;7.660;2023-04-12T15:16:05;0.60;;;0.50;;
4359;SDS011;2193;47.980;7.660;2023-04-12T15:18:32;0.80;;;0.40;;
4359;SDS011;2193;47.980;7.660;2023-04-12T15:20:57;0.60;;;0.50;;
4359;SDS011;2193;47.980;7.660;2023-04-12T15:23:24;0.60;;;0.40;;
4359;SDS011;2193;47.980;7.660;2023-04-12T15:25:54;0.80;;;0.50;;
4359;SDS011;2193;47.980;7.660;2023-04-12T15:28:20;0.60;;;0.40;;
4359;SDS011;2193;47.980;7.660;2023-04-12T15:30:45;0.60;;;0.50;;
4359;SDS011;2193;47.980;7.660;2023-04-12T15:33:10;0.60;;;0.40;;
4359;SDS011;2193;47.980;7.660;2023-04-12T15:35:35;0.60;;;0.40;;